Time;durP1;ratioP1;P1;durP2;ratioP2;P2;SDS_P1;SDS_P2;PMS_P1;PMS_P2;Temp;Humidity;BMP_temperature;BMP_pressure;BME280_temperature;BME280_humidity;BME280_pressure;Samples;Min_cycle;Max_cycle;Signal;HPM_P1;HPM_P2
2022/11/28 00:01:38;;;;;;;;;;;11.40;69.00;;;;;;5010121;28;19969;-46
2022/11/28 00:04:05;;;;;;;;;;;11.40;69.00;;;;;;5007995;28;19932;-47
2022/11/28 00:06:36;;;;;;;;;;;11.40;69.00;;;;;;4994952;28;19926;-45
2022/11/28 00:09:10;;;;;;;;;;;11.40;69.10;;;;;;5004397;28;19983;-47
2022/11/28 00:11:40;;;;;;;;;;;11.40;69.10;;;;;;5009745;28;19932;-47
2022/11/28 00:14:15;;;;;;;;;;;11.40;69.10;;;;;;5013829;28;20389;-46
2022/11/28 00:16:44;;;;;;;;;;;11.40;69.20;;;;;;5004732;28;19964;-46
2022/11/28 00:19:13;;;;;;;;;;;11.40;69.20;;;;;;4994069;28;19925;-46
2022/11/28 00:21:42;;;;;;;;;;;11.40;69.10;;;;;;5014031;28;20020;-46
2022/11/28 00:24:11;;;;;;;;;;;11.40;69.10;;;;;;5013825;28;19980;-47
2022/11/28 00:26:40;;;;;;;;;;;11.40;69.10;;;;;;5014215;28;19933;-46
2022/11/28 00:29:09;;;;;;;;;;;11.50;69.20;;;;;;5013508;28;19925;-48
2022/11/28 00:31:43;;;;;;;;;;;11.40;69.10;;;;;;5013417;28;19932;-45
2022/11/28 00:34:13;;;;;;;;;;;11.50;69.80;;;;;;5009452;28;19925;-46
2022/11/28 00:36:44;;;;;;;;;;;11.40;69.10;;;;;;4994332;28;20433;-45
2022/11/28 00:39:11;;;;;;;;;;;11.50;69.20;;;;;;4996472;28;19933;-47
2022/11/28 00:41:39;;;;;;;;;;;11.40;69.10;;;;;;5013551;28;19929;-46
2022/11/28 00:44:07;;;;;;;;;;;11.50;69.20;;;;;;5009156;28;19926;-48
2022/11/28 00:46:33;;;;;;;;;;;11.40;69.10;;;;;;4994000;28;20458;-46
2022/11/28 00:49:00;;;;;;;;;;;11.40;69.10;;;;;;5010437;28;20581;-46
2022/11/28 00:51:29;;;;;;;;;;;11.40;69.10;;;;;;5002074;28;20168;-49
2022/11/28 00:54:02;;;;;;;;;;;11.50;69.20;;;;;;5005533;28;20023;-45
2022/11/28 00:56:32;;;;;;;;;;;11.40;69.20;;;;;;5013624;28;19925;-46
2022/11/28 00:58:59;;;;;;;;;;;11.40;69.20;;;;;;5012173;28;19929;-46
2022/11/28 01:01:30;;;;;;;;;;;11.50;69.20;;;;;;5013444;28;19933;-46
2022/11/28 01:04:02;;;;;;;;;;;11.40;69.20;;;;;;4993945;28;19980;-46
2022/11/28 01:06:32;;;;;;;;;;;11.40;69.20;;;;;;4998983;28;20414;-48
2022/11/28 01:09:02;;;;;;;;;;;11.50;69.30;;;;;;5012347;28;20034;-46
2022/11/28 01:11:32;;;;;;;;;;;11.50;69.30;;;;;;5013014;28;19934;-46
2022/11/28 01:13:59;;;;;;;;;;;11.50;69.40;;;;;;4994082;28;19949;-45
2022/11/28 01:16:30;;;;;;;;;;;11.50;69.40;;;;;;5007696;28;19932;-46
2022/11/28 01:18:59;;;;;;;;;;;11.50;69.30;;;;;;5013015;28;19960;-46
2022/11/28 01:21:27;;;;;;;;;;;11.50;69.30;;;;;;4998025;28;19925;-47
2022/11/28 01:23:54;;;;;;;;;;;11.50;69.30;;;;;;5008285;28;19925;-46
2022/11/28 01:26:24;;;;;;;;;;;11.50;69.30;;;;;;5011773;28;20394;-46
2022/11/28 01:28:51;;;;;;;;;;;11.50;69.30;;;;;;5012657;28;19926;-49
2022/11/28 01:31:23;;;;;;;;;;;11.50;69.30;;;;;;5006822;28;20448;-45
2022/11/28 01:33:50;;;;;;;;;;;11.60;69.30;;;;;;4993386;28;20020;-48
2022/11/28 01:36:18;;;;;;;;;;;11.60;69.30;;;;;;5000614;28;19925;-46
2022/11/28 01:38:45;;;;;;;;;;;11.60;69.30;;;;;;5010531;28;19925;-46
2022/11/28 01:41:14;;;;;;;;;;;11.60;69.20;;;;;;4999393;28;19926;-46
2022/11/28 01:44:01;;;;;;;;;;;11.60;69.30;;;;;;4993268;28;20020;-46
2022/11/28 01:46:31;;;;;;;;;;;11.60;69.30;;;;;;5010359;28;19972;-47
2022/11/28 01:49:02;;;;;;;;;;;11.60;69.30;;;;;;5009067;28;20321;-47
2022/11/28 01:51:29;;;;;;;;;;;11.60;69.30;;;;;;5004662;28;19929;-46
2022/11/28 01:54:03;;;;;;;;;;;11.60;69.30;;;;;;5001261;28;19972;-46
2022/11/28 01:56:37;;;;;;;;;;;11.60;69.30;;;;;;5012521;28;19926;-46
2022/11/28 01:59:07;;;;;;;;;;;11.60;69.30;;;;;;5004666;28;19925;-46
2022/11/28 02:01:33;;;;;;;;;;;11.60;69.40;;;;;;5012422;28;19933;-46
2022/11/28 02:04:05;;;;;;;;;;;11.60;69.40;;;;;;5014232;28;19961;-46
2022/11/28 02:06:32;;;;;;;;;;;11.60;69.40;;;;;;5012288;28;20024;-45
2022/11/28 02:08:59;;;;;;;;;;;11.60;69.50;;;;;;5000604;28;19929;-48
2022/11/28 02:11:35;;;;;;;;;;;11.60;69.50;;;;;;4992774;28;19952;-46
2022/11/28 02:14:26;;;;;;;;;;;11.60;69.50;;;;;;5007325;28;19937;-47
2022/11/28 02:17:01;;;;;;;;;;;11.60;69.50;;;;;;5009223;28;19953;-46
2022/11/28 02:19:48;;;;;;;;;;;11.60;69.50;;;;;;4992516;28;19980;-48
2022/11/28 02:22:24;;;;;;;;;;;11.60;69.60;;;;;;4996804;28;19932;-47
2022/11/28 02:25:10;;;;;;;;;;;11.60;69.60;;;;;;5013072;28;19932;-47
2022/11/28 02:27:57;;;;;;;;;;;11.60;69.60;;;;;;5002906;28;19933;-46
2022/11/28 02:30:42;;;;;;;;;;;11.60;69.70;;;;;;4991842;28;19925;-47
2022/11/28 02:33:18;;;;;;;;;;;11.60;69.70;;;;;;5010019;28;19976;-45
2022/11/28 02:36:01;;;;;;;;;;;11.60;69.80;;;;;;4991645;28;20015;-45
2022/11/28 02:38:43;;;;;;;;;;;11.60;69.80;;;;;;4992353;28;19926;-46
2022/11/28 02:41:18;;;;;;;;;;;11.60;69.80;;;;;;5014443;28;19932;-47
2022/11/28 02:44:00;;;;;;;;;;;11.60;69.80;;;;;;5012648;28;20419;-45
2022/11/28 02:46:48;;;;;;;;;;;11.60;69.90;;;;;;5004080;28;19930;-45
2022/11/28 02:49:21;;;;;;;;;;;11.60;69.90;;;;;;4999719;28;19932;-46
2022/11/28 02:52:02;;;;;;;;;;;11.60;69.90;;;;;;5009458;28;19926;-44
2022/11/28 02:54:32;;;;;;;;;;;11.60;69.90;;;;;;4999953;28;20293;-46
2022/11/28 02:57:01;;;;;;;;;;;11.70;70.00;;;;;;4997874;28;19925;-48
2022/11/28 02:59:28;;;;;;;;;;;11.60;69.90;;;;;;4993754;28;20394;-45
2022/11/28 03:01:58;;;;;;;;;;;11.60;69.90;;;;;;5014338;28;19926;-46
2022/11/28 03:04:30;;;;;;;;;;;11.70;70.00;;;;;;5004572;28;19926;-44
2022/11/28 03:07:00;;;;;;;;;;;11.60;69.90;;;;;;4991729;28;19932;-46
2022/11/28 03:09:41;;;;;;;;;;;11.60;69.90;;;;;;5008140;28;19940;-46
2022/11/28 03:12:09;;;;;;;;;;;11.70;70.00;;;;;;5009608;28;19929;-49
2022/11/28 03:14:53;;;;;;;;;;;11.70;70.00;;;;;;4994943;28;20401;-46
2022/11/28 03:17:26;;;;;;;;;;;11.70;70.00;;;;;;4992066;28;19972;-46
2022/11/28 03:19:56;;;;;;;;;;;11.60;69.90;;;;;;5012887;28;19953;-47
2022/11/28 03:22:37;;;;;;;;;;;11.60;69.90;;;;;;5011179;28;19948;-46
2022/11/28 03:25:11;;;;;;;;;;;11.70;70.60;;;;;;4991634;28;19965;-46
2022/11/28 03:27:50;;;;;;;;;;;11.60;69.90;;;;;;4997463;28;19937;-46
2022/11/28 03:30:31;;;;;;;;;;;11.70;70.00;;;;;;5010802;28;19925;-46
2022/11/28 03:32:59;;;;;;;;;;;11.60;69.90;;;;;;4999626;28;20454;-49
2022/11/28 03:35:30;;;;;;;;;;;11.60;69.90;;;;;;4993441;28;19933;-46
2022/11/28 03:38:08;;;;;;;;;;;11.60;69.90;;;;;;5017961;28;20270;-45
2022/11/28 03:40:41;;;;;;;;;;;11.60;69.90;;;;;;5010751;28;19926;-45
2022/11/28 03:43:10;;;;;;;;;;;11.60;69.90;;;;;;4998826;28;19997;-44
2022/11/28 03:45:40;;;;;;;;;;;11.60;69.90;;;;;;4994237;28;20052;-46
2022/11/28 03:48:16;;;;;;;;;;;11.60;69.90;;;;;;5016735;28;20024;-45
2022/11/28 03:50:58;;;;;;;;;;;11.60;69.90;;;;;;5010477;28;19972;-46
2022/11/28 03:53:35;;;;;;;;;;;11.60;69.90;;;;;;4999853;28;19925;-48
2022/11/28 03:56:23;;;;;;;;;;;11.60;69.90;;;;;;4991903;28;19925;-46
2022/11/28 03:58:53;;;;;;;;;;;11.50;69.90;;;;;;5015442;28;20337;-47
2022/11/28 04:01:39;;;;;;;;;;;11.50;70.10;;;;;;5008126;28;19925;-46
2022/11/28 04:04:12;;;;;;;;;;;11.60;70.20;;;;;;4999043;28;20517;-45
2022/11/28 04:06:38;;;;;;;;;;;11.60;70.20;;;;;;5014213;28;19925;-46
2022/11/28 04:09:10;;;;;;;;;;;11.50;70.10;;;;;;5014420;28;19952;-46
2022/11/28 04:11:48;;;;;;;;;;;11.60;70.20;;;;;;5014663;28;19933;-46
2022/11/28 04:14:25;;;;;;;;;;;11.60;70.30;;;;;;5016395;28;19929;-46
2022/11/28 04:16:55;;;;;;;;;;;11.60;70.30;;;;;;5017539;28;19984;-46
2022/11/28 04:19:23;;;;;;;;;;;11.60;70.30;;;;;;5007979;28;20014;-45
2022/11/28 04:21:56;;;;;;;;;;;11.60;70.30;;;;;;4995031;28;19926;-45
2022/11/28 04:24:33;;;;;;;;;;;11.60;70.30;;;;;;5014277;28;19925;-46
2022/11/28 04:27:11;;;;;;;;;;;11.60;70.40;;;;;;5017581;28;19926;-49
2022/11/28 04:29:41;;;;;;;;;;;11.60;70.40;;;;;;5005489;28;19926;-46
2022/11/28 04:32:10;;;;;;;;;;;11.60;70.40;;;;;;4994687;28;20036;-46
2022/11/28 04:34:38;;;;;;;;;;;11.60;70.40;;;;;;5012490;28;19926;-46
2022/11/28 04:37:09;;;;;;;;;;;11.60;70.40;;;;;;4996622;28;19926;-46
2022/11/28 04:39:44;;;;;;;;;;;11.60;70.40;;;;;;4996916;28;19926;-46
2022/11/28 04:42:12;;;;;;;;;;;11.60;70.40;;;;;;4994238;28;19926;-47
2022/11/28 04:44:47;;;;;;;;;;;11.60;70.40;;;;;;5014709;28;19940;-46
2022/11/28 04:47:14;;;;;;;;;;;11.60;70.40;;;;;;5013641;28;20411;-46
2022/11/28 04:49:43;;;;;;;;;;;11.60;70.40;;;;;;4996239;28;20295;-46
2022/11/28 04:52:15;;;;;;;;;;;11.60;70.40;;;;;;5012491;28;19926;-47
2022/11/28 04:55:01;;;;;;;;;;;11.60;70.40;;;;;;5009851;28;19926;-47
2022/11/28 04:57:37;;;;;;;;;;;11.60;70.40;;;;;;5005412;28;19932;-45
2022/11/28 05:00:06;;;;;;;;;;;11.70;70.50;;;;;;4992905;28;19930;-46
2022/11/28 05:02:34;;;;;;;;;;;11.70;70.50;;;;;;5011871;28;19931;-47
2022/11/28 05:05:00;;;;;;;;;;;11.70;70.50;;;;;;5012689;28;19925;-45
2022/11/28 05:07:28;;;;;;;;;;;11.70;70.50;;;;;;4998219;28;19941;-47
2022/11/28 05:09:56;;;;;;;;;;;11.70;70.50;;;;;;4993795;28;19933;-46
2022/11/28 05:12:26;;;;;;;;;;;11.70;70.40;;;;;;5019795;28;19962;-47
2022/11/28 05:14:52;;;;;;;;;;;11.70;70.50;;;;;;5013296;28;19932;-48
2022/11/28 05:17:20;;;;;;;;;;;11.70;70.50;;;;;;4998639;28;19956;-46
2022/11/28 05:19:49;;;;;;;;;;;11.70;70.50;;;;;;5007391;28;19935;-46
2022/11/28 05:22:16;;;;;;;;;;;11.70;70.50;;;;;;5013266;28;19971;-46
2022/11/28 05:24:42;;;;;;;;;;;11.70;70.60;;;;;;5012910;28;19929;-47
2022/11/28 05:27:12;;;;;;;;;;;11.70;70.60;;;;;;5012995;28;20456;-46
2022/11/28 05:29:42;;;;;;;;;;;11.70;70.60;;;;;;5014924;28;20135;-46
2022/11/28 05:32:17;;;;;;;;;;;11.70;70.60;;;;;;5009581;28;19932;-46
2022/11/28 05:34:48;;;;;;;;;;;11.70;70.60;;;;;;5003201;28;19981;-46
2022/11/28 05:37:15;;;;;;;;;;;11.80;70.60;;;;;;4993223;28;19933;-46
2022/11/28 05:39:41;;;;;;;;;;;11.70;70.50;;;;;;5009595;28;19930;-46
2022/11/28 05:42:10;;;;;;;;;;;11.70;70.50;;;;;;5012511;28;19941;-45
2022/11/28 05:44:38;;;;;;;;;;;11.80;70.50;;;;;;4996207;28;19993;-45
2022/11/28 05:47:06;;;;;;;;;;;11.80;70.50;;;;;;4993211;28;20637;-46
2022/11/28 05:49:33;;;;;;;;;;;11.70;70.50;;;;;;5012417;28;20020;-47
2022/11/28 05:52:00;;;;;;;;;;;11.70;70.50;;;;;;5001072;28;20334;-47
2022/11/28 05:54:29;;;;;;;;;;;11.80;70.60;;;;;;5008176;28;20040;-47
2022/11/28 05:56:55;;;;;;;;;;;11.70;70.60;;;;;;5012206;28;20309;-45
2022/11/28 05:59:23;;;;;;;;;;;11.70;70.60;;;;;;5013878;28;19933;-49
2022/11/28 06:01:50;;;;;;;;;;;11.80;70.70;;;;;;5012272;28;19930;-45
2022/11/28 06:04:17;;;;;;;;;;;11.80;70.70;;;;;;4998306;28;19933;-46
2022/11/28 06:06:48;;;;;;;;;;;11.80;70.60;;;;;;5000377;28;19926;-45
2022/11/28 06:09:14;;;;;;;;;;;11.80;70.60;;;;;;5015130;28;19932;-46
2022/11/28 06:11:41;;;;;;;;;;;11.80;70.60;;;;;;5010990;28;19925;-45
2022/11/28 06:14:08;;;;;;;;;;;11.80;70.60;;;;;;4992635;28;19926;-46
2022/11/28 06:16:36;;;;;;;;;;;11.80;70.60;;;;;;5007523;28;19932;-48
2022/11/28 06:19:04;;;;;;;;;;;11.80;70.60;;;;;;5011903;28;19960;-46
2022/11/28 06:21:31;;;;;;;;;;;11.80;70.60;;;;;;4996408;28;19925;-46
2022/11/28 06:23:58;;;;;;;;;;;11.80;70.50;;;;;;5012518;28;19929;-46
2022/11/28 06:26:26;;;;;;;;;;;11.80;70.50;;;;;;5016569;28;19957;-46
2022/11/28 06:28:59;;;;;;;;;;;11.80;70.40;;;;;;5011787;28;19979;-47
2022/11/28 06:31:27;;;;;;;;;;;11.80;70.40;;;;;;5004869;28;19932;-45
2022/11/28 06:33:54;;;;;;;;;;;11.80;71.00;;;;;;4992494;28;19980;-46
2022/11/28 06:36:21;;;;;;;;;;;11.80;70.40;;;;;;5011137;28;19936;-46
2022/11/28 06:38:48;;;;;;;;;;;11.80;71.00;;;;;;5010086;28;20297;-46
2022/11/28 06:41:17;;;;;;;;;;;11.80;70.40;;;;;;4992102;28;19932;-46
2022/11/28 06:43:44;;;;;;;;;;;11.80;70.40;;;;;;5009416;28;19932;-45
2022/11/28 06:46:17;;;;;;;;;;;11.80;70.40;;;;;;5016085;28;20023;-46
2022/11/28 06:48:44;;;;;;;;;;;11.80;70.40;;;;;;5002934;28;20020;-46
2022/11/28 06:51:13;;;;;;;;;;;11.80;70.40;;;;;;5011224;28;19956;-46
2022/11/28 06:53:42;;;;;;;;;;;11.80;70.40;;;;;;5009257;28;19932;-47
2022/11/28 06:56:10;;;;;;;;;;;11.80;70.40;;;;;;5011183;28;19925;-47
2022/11/28 06:58:37;;;;;;;;;;;11.80;70.40;;;;;;5003941;28;19926;-47
2022/11/28 07:01:04;;;;;;;;;;;11.80;70.40;;;;;;4992163;28;19948;-47
2022/11/28 07:03:35;;;;;;;;;;;11.80;70.40;;;;;;5016219;28;20024;-47
2022/11/28 07:06:06;;;;;;;;;;;11.80;70.40;;;;;;5011749;28;20590;-46
2022/11/28 07:08:35;;;;;;;;;;;11.70;70.40;;;;;;5004155;28;20317;-46
2022/11/28 07:11:08;;;;;;;;;;;11.70;70.40;;;;;;4992200;28;20325;-46
2022/11/28 07:13:37;;;;;;;;;;;11.70;70.40;;;;;;5004662;28;19932;-45
2022/11/28 07:16:03;;;;;;;;;;;11.80;70.40;;;;;;4983248;28;20423;-46
2022/11/28 07:18:33;;;;;;;;;;;11.70;70.40;;;;;;5008061;28;19952;-48
2022/11/28 07:21:01;;;;;;;;;;;11.70;70.30;;;;;;5013434;28;19936;-48
2022/11/28 07:23:27;;;;;;;;;;;11.70;70.30;;;;;;5014346;28;19925;-47
2022/11/28 07:25:57;;;;;;;;;;;11.70;70.40;;;;;;5011370;28;19941;-45
2022/11/28 07:28:27;;;;;;;;;;;11.70;70.40;;;;;;4996778;28;19929;-45
2022/11/28 07:31:09;;;;;;;;;;;11.70;70.40;;;;;;5006669;28;19944;-47
2022/11/28 07:33:37;;;;;;;;;;;11.70;70.50;;;;;;5011718;28;19932;-47
2022/11/28 07:36:06;;;;;;;;;;;11.70;70.50;;;;;;4999639;28;19933;-46
2022/11/28 07:38:37;;;;;;;;;;;11.80;70.60;;;;;;5004355;28;20020;-46
2022/11/28 07:41:06;;;;;;;;;;;11.80;70.60;;;;;;5004872;28;20389;-47
2022/11/28 07:43:37;;;;;;;;;;;11.70;70.50;;;;;;5014694;28;19936;-46
2022/11/28 07:46:05;;;;;;;;;;;11.80;70.60;;;;;;5003576;28;19937;-46
2022/11/28 07:48:35;;;;;;;;;;;11.80;70.60;;;;;;5010473;28;19983;-46
2022/11/28 07:51:06;;;;;;;;;;;11.80;70.50;;;;;;5014449;28;20598;-47
2022/11/28 07:53:37;;;;;;;;;;;11.80;70.50;;;;;;5009795;28;19934;-45
2022/11/28 07:56:04;;;;;;;;;;;11.80;70.60;;;;;;5003616;28;19929;-49
2022/11/28 07:58:32;;;;;;;;;;;11.80;70.60;;;;;;5012101;28;19968;-46
2022/11/28 08:01:02;;;;;;;;;;;11.80;70.60;;;;;;5019627;28;19925;-47
2022/11/28 08:03:31;;;;;;;;;;;11.80;70.60;;;;;;5011426;28;19944;-46
2022/11/28 08:06:01;;;;;;;;;;;11.80;70.60;;;;;;4991863;28;20345;-47
2022/11/28 08:08:28;;;;;;;;;;;11.80;70.60;;;;;;5002111;28;20386;-45
2022/11/28 08:11:02;;;;;;;;;;;11.80;70.70;;;;;;5010889;28;19925;-45
2022/11/28 08:13:32;;;;;;;;;;;11.90;70.70;;;;;;4995775;28;19926;-46
2022/11/28 08:16:05;;;;;;;;;;;11.90;70.70;;;;;;4991675;28;19926;-46
2022/11/28 08:18:32;;;;;;;;;;;11.90;70.80;;;;;;5003626;28;20297;-45
2022/11/28 08:21:02;;;;;;;;;;;11.90;70.70;;;;;;5010726;28;20056;-47
2022/11/28 08:23:28;;;;;;;;;;;11.90;70.80;;;;;;5011252;28;19948;-46
2022/11/28 08:25:58;;;;;;;;;;;11.90;70.70;;;;;;5010893;28;19932;-47
2022/11/28 08:28:25;;;;;;;;;;;12.00;71.40;;;;;;5013168;28;19925;-45
2022/11/28 08:30:52;;;;;;;;;;;12.00;70.80;;;;;;5008441;28;19971;-47
2022/11/28 08:33:18;;;;;;;;;;;12.00;70.70;;;;;;4991946;28;19930;-48
2022/11/28 08:35:45;;;;;;;;;;;12.00;70.70;;;;;;5009098;28;20455;-45
2022/11/28 08:38:16;;;;;;;;;;;12.00;70.70;;;;;;5017983;28;19925;-46
2022/11/28 08:40:48;;;;;;;;;;;12.00;70.70;;;;;;5014208;28;19961;-46
2022/11/28 08:43:18;;;;;;;;;;;12.10;70.80;;;;;;5000684;28;19933;-46
2022/11/28 08:45:49;;;;;;;;;;;12.10;70.80;;;;;;4999822;28;19936;-45
2022/11/28 08:48:18;;;;;;;;;;;12.10;70.80;;;;;;5014878;28;20305;-46
2022/11/28 08:50:48;;;;;;;;;;;12.10;70.80;;;;;;5010590;28;20028;-46
2022/11/28 08:53:14;;;;;;;;;;;12.10;70.80;;;;;;5000878;28;19948;-45
2022/11/28 08:55:44;;;;;;;;;;;12.10;70.70;;;;;;5014164;28;20016;-47
2022/11/28 08:58:11;;;;;;;;;;;12.10;70.70;;;;;;5016129;28;19938;-47
2022/11/28 09:00:41;;;;;;;;;;;12.10;70.70;;;;;;5013553;28;19939;-45
2022/11/28 09:03:11;;;;;;;;;;;12.10;71.30;;;;;;4994767;28;20024;-47
2022/11/28 09:05:38;;;;;;;;;;;12.10;70.70;;;;;;5007790;28;20294;-49
2022/11/28 09:08:05;;;;;;;;;;;12.20;70.70;;;;;;5014216;28;19925;-47
2022/11/28 09:10:40;;;;;;;;;;;12.10;70.70;;;;;;4996748;28;19936;-46
2022/11/28 09:13:07;;;;;;;;;;;12.20;70.80;;;;;;4999278;28;20364;-46
2022/11/28 09:15:43;;;;;;;;;;;12.20;70.80;;;;;;5022295;28;19932;-45
2022/11/28 09:18:10;;;;;;;;;;;12.20;70.80;;;;;;5013511;28;19953;-47
2022/11/28 09:20:41;;;;;;;;;;;12.20;70.80;;;;;;4996898;28;20354;-50
2022/11/28 09:23:07;;;;;;;;;;;12.20;70.80;;;;;;5005018;28;19961;-46
2022/11/28 09:25:37;;;;;;;;;;;12.20;70.90;;;;;;5000439;28;20410;-47
2022/11/28 09:28:06;;;;;;;;;;;12.20;70.90;;;;;;4979139;28;19960;-48
2022/11/28 09:30:33;;;;;;;;;;;12.20;71.00;;;;;;5007792;28;19938;-47
2022/11/28 09:33:02;;;;;;;;;;;12.20;71.00;;;;;;5010402;28;20024;-46
2022/11/28 09:35:28;;;;;;;;;;;12.20;71.00;;;;;;5006563;28;20390;-47
2022/11/28 09:37:56;;;;;;;;;;;12.20;71.00;;;;;;5009258;28;19925;-46
2022/11/28 09:40:29;;;;;;;;;;;12.30;71.00;;;;;;5012871;28;20308;-48
2022/11/28 09:42:57;;;;;;;;;;;12.30;71.00;;;;;;5002491;28;19974;-47
2022/11/28 09:45:25;;;;;;;;;;;12.30;71.10;;;;;;5014440;28;19936;-47
2022/11/28 09:47:53;;;;;;;;;;;12.30;71.10;;;;;;5010739;28;20020;-47
2022/11/28 09:50:22;;;;;;;;;;;12.30;71.10;;;;;;4995737;28;19945;-48
2022/11/28 09:52:55;;;;;;;;;;;12.30;71.10;;;;;;5015181;28;19948;-46
2022/11/28 09:55:27;;;;;;;;;;;12.30;71.20;;;;;;5010342;28;19965;-47
2022/11/28 09:57:56;;;;;;;;;;;12.30;71.20;;;;;;5009742;28;21285;-48
2022/11/28 10:00:27;;;;;;;;;;;12.40;71.20;;;;;;5001572;28;19943;-48
2022/11/28 10:03:02;;;;;;;;;;;12.40;71.20;;;;;;4995261;28;20397;-47
2022/11/28 10:05:35;;;;;;;;;;;12.40;71.20;;;;;;5010733;28;19925;-46
2022/11/28 10:08:11;;;;;;;;;;;12.40;71.70;;;;;;5011386;28;19926;-46
2022/11/28 10:10:56;;;;;;;;;;;12.50;71.30;;;;;;4991296;28;19932;-46
2022/11/28 10:13:32;;;;;;;;;;;12.50;71.40;;;;;;5015129;28;20304;-51
2022/11/28 10:16:37;;;;;;;;;;;12.50;71.40;;;;;;4996361;28;19930;-48
2022/11/28 10:19:08;;;;;;;;;;;12.50;71.60;;;;;;4999607;28;20054;-46
2022/11/28 10:21:57;;;;;;;;;;;12.60;72.00;;;;;;5015641;28;20028;-44
2022/11/28 10:24:33;;;;;;;;;;;12.60;71.20;;;;;;5010965;28;19925;-49
2022/11/28 10:27:01;;;;;;;;;;;12.60;71.20;;;;;;5026922;28;19925;-45
2022/11/28 10:29:31;;;;;;;;;;;12.70;71.20;;;;;;5018449;28;19932;-47
2022/11/28 10:32:00;;;;;;;;;;;12.70;71.20;;;;;;4994056;28;19929;-46
2022/11/28 10:34:29;;;;;;;;;;;12.70;71.10;;;;;;5005263;28;19984;-48
2022/11/28 10:37:01;;;;;;;;;;;12.70;71.10;;;;;;4992104;28;19980;-46
2022/11/28 10:39:28;;;;;;;;;;;12.70;71.20;;;;;;5006506;28;19972;-47
2022/11/28 10:42:10;;;;;;;;;;;12.80;71.20;;;;;;4995538;28;20305;-46
2022/11/28 10:44:51;;;;;;;;;;;12.70;71.30;;;;;;5004119;28;20390;-47
2022/11/28 10:47:27;;;;;;;;;;;12.80;71.20;;;;;;5011057;28;19925;-47
2022/11/28 10:49:56;;;;;;;;;;;12.80;71.20;;;;;;5010962;28;19930;-45
2022/11/28 10:52:29;;;;;;;;;;;12.80;71.10;;;;;;4996200;28;19926;-47
2022/11/28 10:55:14;;;;;;;;;;;12.80;71.10;;;;;;4992167;28;20001;-47
2022/11/28 10:57:44;;;;;;;;;;;12.80;71.10;;;;;;5013305;28;20308;-46
2022/11/28 11:00:12;;;;;;;;;;;12.80;71.00;;;;;;5010030;28;19929;-47
2022/11/28 11:02:39;;;;;;;;;;;12.80;71.00;;;;;;5003184;28;19961;-47
2022/11/28 11:05:06;;;;;;;;;;;12.80;71.00;;;;;;4995677;28;20060;-48
2022/11/28 11:07:33;;;;;;;;;;;12.80;71.00;;;;;;4995908;28;19935;-47
2022/11/28 11:10:15;;;;;;;;;;;12.90;71.00;;;;;;5005196;28;19926;-46
2022/11/28 11:12:43;;;;;;;;;;;12.90;71.00;;;;;;5002589;28;19925;-48
2022/11/28 11:15:20;;;;;;;;;;;12.90;70.90;;;;;;4996942;28;20393;-48
2022/11/28 11:17:49;;;;;;;;;;;12.90;71.00;;;;;;4986803;28;19929;-46
2022/11/28 11:20:21;;;;;;;;;;;12.90;71.00;;;;;;5007197;28;19934;-48
2022/11/28 11:22:55;;;;;;;;;;;12.90;71.00;;;;;;5006120;28;19951;-47
2022/11/28 11:25:23;;;;;;;;;;;12.90;70.90;;;;;;4997075;28;20032;-47
2022/11/28 11:28:00;;;;;;;;;;;12.90;70.90;;;;;;5007260;28;20298;-47
2022/11/28 11:30:29;;;;;;;;;;;12.90;70.80;;;;;;5000698;28;19929;-47
2022/11/28 11:32:57;;;;;;;;;;;12.90;70.90;;;;;;5000374;28;20024;-47
2022/11/28 11:35:28;;;;;;;;;;;12.90;71.00;;;;;;5004540;28;19934;-47
2022/11/28 11:38:15;;;;;;;;;;;12.90;70.90;;;;;;4989890;28;20882;-47
2022/11/28 11:40:42;;;;;;;;;;;12.90;71.00;;;;;;4999372;28;19936;-47
2022/11/28 11:43:28;;;;;;;;;;;12.90;71.10;;;;;;4996903;28;19932;-45
2022/11/28 11:46:08;;;;;;;;;;;12.90;71.10;;;;;;5013546;28;20406;-48
2022/11/28 11:48:35;;;;;;;;;;;12.80;70.90;;;;;;5001598;28;20394;-46
2022/11/28 11:51:02;;;;;;;;;;;12.80;71.10;;;;;;4994789;28;20313;-50
2022/11/28 11:53:28;;;;;;;;;;;12.80;71.10;;;;;;5006825;28;19936;-47
2022/11/28 11:55:57;;;;;;;;;;;12.80;71.10;;;;;;5003153;28;19926;-47
2022/11/28 11:58:50;;;;;;;;;;;12.80;71.10;;;;;;4992074;28;20027;-46
2022/11/28 12:01:18;;;;;;;;;;;12.80;71.20;;;;;;5000065;28;19988;-48
2022/11/28 12:03:57;;;;;;;;;;;12.80;71.30;;;;;;5005114;28;19925;-48
2022/11/28 12:06:28;;;;;;;;;;;12.80;71.40;;;;;;4996265;28;19932;-50
2022/11/28 12:08:54;;;;;;;;;;;12.80;71.30;;;;;;4992121;28;19937;-47
2022/11/28 12:11:34;;;;;;;;;;;12.80;71.30;;;;;;5001544;28;19933;-47
2022/11/28 12:14:23;;;;;;;;;;;12.80;71.40;;;;;;5011901;28;19939;-47
2022/11/28 12:17:08;;;;;;;;;;;12.80;71.30;;;;;;5009563;28;19925;-47
2022/11/28 12:20:08;;;;;;;;;;;12.80;71.40;;;;;;5002017;28;19929;-49
2022/11/28 12:22:46;;;;;;;;;;;12.80;71.30;;;;;;5010370;28;20012;-47
2022/11/28 12:25:13;;;;;;;;;;;12.90;71.50;;;;;;5007920;28;19929;-47
2022/11/28 12:27:58;;;;;;;;;;;12.90;71.50;;;;;;5007890;28;19937;-51
2022/11/28 12:30:44;;;;;;;;;;;12.90;71.50;;;;;;4989972;28;20477;-47
2022/11/28 12:33:29;;;;;;;;;;;12.90;71.50;;;;;;5004449;28;19926;-47
2022/11/28 12:36:05;;;;;;;;;;;12.90;71.50;;;;;;5008229;28;19930;-46
2022/11/28 12:38:50;;;;;;;;;;;12.90;71.40;;;;;;5001600;28;19936;-47
2022/11/28 12:41:23;;;;;;;;;;;12.90;71.30;;;;;;5006004;28;20416;-46
2022/11/28 12:44:16;;;;;;;;;;;12.90;71.40;;;;;;4996123;28;19940;-47
2022/11/28 12:47:01;;;;;;;;;;;12.90;71.50;;;;;;4996179;28;19957;-49
2022/11/28 12:49:43;;;;;;;;;;;12.90;71.50;;;;;;5000441;28;19929;-51
2022/11/28 12:52:34;;;;;;;;;;;12.90;71.50;;;;;;5003259;28;19944;-49
2022/11/28 12:55:27;;;;;;;;;;;12.90;71.50;;;;;;4996561;28;19933;-47
2022/11/28 12:58:01;;;;;;;;;;;12.90;71.60;;;;;;4981795;28;19926;-50
2022/11/28 13:00:33;;;;;;;;;;;13.00;71.60;;;;;;5005044;28;19933;-47
2022/11/28 13:03:07;;;;;;;;;;;13.00;71.50;;;;;;4977329;28;20019;-48
2022/11/28 13:05:36;;;;;;;;;;;13.00;71.60;;;;;;4999225;28;20102;-50
2022/11/28 13:08:15;;;;;;;;;;;13.00;71.60;;;;;;5011862;28;19932;-47
2022/11/28 13:10:48;;;;;;;;;;;13.00;71.60;;;;;;5013584;28;20402;-51
2022/11/28 13:13:15;;;;;;;;;;;13.10;71.60;;;;;;5012148;28;19936;-49
2022/11/28 13:15:50;;;;;;;;;;;13.10;71.60;;;;;;5004427;28;20320;-47
2022/11/28 13:18:17;;;;;;;;;;;13.10;71.50;;;;;;5007909;28;19929;-49
2022/11/28 13:21:02;;;;;;;;;;;13.10;71.50;;;;;;5010074;28;19929;-48
2022/11/28 13:23:42;;;;;;;;;;;13.10;71.50;;;;;;5012048;28;20309;-47
2022/11/28 13:26:41;;;;;;;;;;;13.10;71.50;;;;;;5011596;28;19980;-48
2022/11/28 13:29:14;;;;;;;;;;;13.10;71.40;;;;;;4990457;28;19932;-47
2022/11/28 13:32:03;;;;;;;;;;;13.10;71.50;;;;;;5008775;28;20436;-47
2022/11/28 13:34:30;;;;;;;;;;;13.10;71.50;;;;;;5008222;28;19929;-46
2022/11/28 13:37:07;;;;;;;;;;;13.10;71.50;;;;;;5010996;28;19926;-46
2022/11/28 13:39:57;;;;;;;;;;;13.10;71.50;;;;;;5012359;28;19959;-51
2022/11/28 13:42:42;;;;;;;;;;;13.20;71.50;;;;;;5012297;28;20016;-49
2022/11/28 13:45:34;;;;;;;;;;;13.10;71.50;;;;;;5012979;28;19926;-46
2022/11/28 13:48:21;;;;;;;;;;;13.10;71.50;;;;;;5014400;28;19925;-46
2022/11/28 13:51:13;;;;;;;;;;;13.10;71.60;;;;;;5010430;28;19925;-46
2022/11/28 13:53:48;;;;;;;;;;;13.20;71.70;;;;;;5011736;28;20024;-47
2022/11/28 13:56:28;;;;;;;;;;;13.20;71.80;;;;;;5017106;28;20429;-46
2022/11/28 13:58:57;;;;;;;;;;;13.20;71.80;;;;;;5011991;28;19926;-47
2022/11/28 14:01:24;;;;;;;;;;;13.20;71.70;;;;;;5009244;28;19925;-46
2022/11/28 14:03:57;;;;;;;;;;;13.20;71.60;;;;;;5011712;28;19926;-47
2022/11/28 14:06:25;;;;;;;;;;;13.30;71.60;;;;;;5014184;28;19926;-47
2022/11/28 14:08:59;;;;;;;;;;;13.30;71.60;;;;;;5011114;28;20397;-47
2022/11/28 14:11:40;;;;;;;;;;;13.30;71.50;;;;;;5001245;28;19925;-46
2022/11/28 14:14:26;;;;;;;;;;;13.30;71.50;;;;;;5006892;28;20008;-45
2022/11/28 14:17:07;;;;;;;;;;;13.30;71.50;;;;;;5008281;28;19930;-47
2022/11/28 14:19:38;;;;;;;;;;;13.30;71.60;;;;;;4999814;28;20024;-48
2022/11/28 14:22:18;;;;;;;;;;;13.30;71.60;;;;;;5005527;28;19925;-48
2022/11/28 14:24:51;;;;;;;;;;;13.30;71.60;;;;;;4993987;28;20412;-47
2022/11/28 14:27:26;;;;;;;;;;;13.30;71.60;;;;;;4997184;28;19937;-48
2022/11/28 14:29:54;;;;;;;;;;;13.30;71.50;;;;;;4999227;28;19926;-47
2022/11/28 14:32:27;;;;;;;;;;;13.30;71.40;;;;;;5009489;28;20386;-48
2022/11/28 14:34:57;;;;;;;;;;;13.30;71.40;;;;;;5020117;28;19933;-47
2022/11/28 14:37:28;;;;;;;;;;;13.30;71.30;;;;;;5009722;28;19936;-46
2022/11/28 14:39:56;;;;;;;;;;;13.30;71.40;;;;;;5009640;28;19929;-48
2022/11/28 14:42:22;;;;;;;;;;;13.30;71.30;;;;;;5013294;28;20393;-48
2022/11/28 14:45:25;;;;;;;;;;;13.30;71.20;;;;;;5010972;28;19926;-47
2022/11/28 14:48:11;;;;;;;;;;;13.30;71.30;;;;;;5009107;28;20328;-47